Woodstock, Illinois
Current Conditions -  °F | °C
As of 12:55 PM on Friday 31 Oct 2014 (Local Time) from KBUU Reporting Station
Overcast Overcast  
Wind Chill: 24°   Ceiling: 4100
Heat Index: 35°   Visibility: 10mi
Dew Point: 21°   Wind: 22mph
Humidity: 56%   Direction: 350°N
Pressure: 30.24"   Gusts: 37mph
Location:  42.31°N, 88.45°W
Report Text: KBUU 311755Z AUTO 35019G32KT 10SM OVC041 02/M06 A3024 RMK AO2 T00181061 10020 20000
Loading
Personal Weather Stations






























Interactive Weather Map
Tropical Storm Tracking
New forecast layout! Learn more

10-Day Weather Forecast

Advertisements
Track Severe Weather on mobile